Time;durP1;ratioP1;P1;durP2;ratioP2;P2;SDS_P1;SDS_P2;PMS_P1;PMS_P2;Temp;Humidity;BMP_temperature;BMP_pressure;BME280_temperature;BME280_humidity;BME280_pressure;Samples;Min_cycle;Max_cycle;Signal;HPM_P1;HPM_P2
2021/10/09 00:00:22;;;;;;;;;;;;;;;4.55;96.97;100569.41;4976057;28;20369;-81
2021/10/09 00:02:47;;;;;;;;;;;;;;;4.55;96.89;100562.38;4974844;28;19918;-81
2021/10/09 00:05:12;;;;;;;;;;;;;;;4.58;97.07;100561.50;4976133;28;20313;-82
2021/10/09 00:07:37;;;;;;;;;;;;;;;4.54;96.92;100568.50;4974491;28;19918;-80
2021/10/09 00:10:05;;;;;;;;;;;;;;;4.60;96.94;100562.38;4976214;28;19937;-81
2021/10/09 00:12:31;;;;;;;;;;;;;;;4.57;96.67;100565.00;4976083;28;19984;-81
2021/10/09 00:14:56;;;;;;;;;;;;;;;4.59;96.62;100562.38;4976126;28;20358;-81
2021/10/09 00:17:23;;;;;;;;;;;;;;;4.55;96.38;100561.53;4974800;28;20488;-81
2021/10/09 00:19:49;;;;;;;;;;;;;;;4.59;96.54;100565.84;4976048;28;20374;-81
2021/10/09 00:22:14;;;;;;;;;;;;;;;4.56;96.65;100568.50;4975757;28;20007;-81
2021/10/09 00:24:39;;;;;;;;;;;;;;;4.59;96.48;100565.84;4974686;28;20362;-81
2021/10/09 00:27:05;;;;;;;;;;;;;;;4.58;96.17;100560.63;4975819;28;19937;-82
2021/10/09 00:29:30;;;;;;;;;;;;;;;4.58;96.15;100560.63;4976001;28;19926;-81
2021/10/09 00:31:55;;;;;;;;;;;;;;;4.52;95.99;100556.28;4976093;28;20428;-81
2021/10/09 00:34:20;;;;;;;;;;;;;;;4.56;96.19;100568.50;4974712;28;19922;-81
2021/10/09 00:36:46;;;;;;;;;;;;;;;4.55;96.04;100559.75;4974786;28;19929;-81
2021/10/09 00:39:11;;;;;;;;;;;;;;;4.58;96.11;100558.00;4975768;28;20017;-81
2021/10/09 00:41:36;;;;;;;;;;;;;;;4.60;95.89;100554.50;4975603;28;19981;-81
2021/10/09 00:44:11;;;;;;;;;;;;;;;4.58;95.67;100565.88;4975459;28;19930;-81
2021/10/09 00:46:38;;;;;;;;;;;;;;;4.61;96.05;100565.84;4975259;28;19922;-81
2021/10/09 00:49:03;;;;;;;;;;;;;;;4.60;95.74;100559.75;4974395;28;19922;-81
2021/10/09 00:51:29;;;;;;;;;;;;;;;4.72;97.19;100556.16;4975943;28;19941;-81
2021/10/09 00:53:55;;;;;;;;;;;;;;;4.89;99.69;100551.66;4975816;28;20439;-81
2021/10/09 00:56:21;;;;;;;;;;;;;;;5.09;100.00;100555.91;4975582;28;19923;-81
2021/10/09 00:58:46;;;;;;;;;;;;;;;5.24;100.00;100553.13;4974268;28;19993;-81
2021/10/09 01:01:12;;;;;;;;;;;;;;;5.44;100.00;100554.69;4975530;28;20047;-86
2021/10/09 01:03:37;;;;;;;;;;;;;;;5.74;100.00;100550.88;4974295;28;19922;-86
2021/10/09 01:06:02;;;;;;;;;;;;;;;6.02;100.00;100544.50;4974833;28;19918;-82
2021/10/09 01:08:28;;;;;;;;;;;;;;;6.22;100.00;100547.72;4975571;28;19929;-84
2021/10/09 01:10:53;;;;;;;;;;;;;;;6.36;100.00;100545.78;4975411;28;20013;-83
2021/10/09 01:13:19;;;;;;;;;;;;;;;6.44;100.00;100550.09;4975247;28;19918;-83
2021/10/09 01:15:44;;;;;;;;;;;;;;;6.52;100.00;100543.81;4975419;28;20567;-83
2021/10/09 01:18:11;;;;;;;;;;;;;;;6.64;100.00;100547.19;4974608;28;20374;-80
2021/10/09 01:20:58;;;;;;;;;;;;;;;6.72;100.00;100540.91;4975397;28;19980;-81
2021/10/09 01:23:23;;;;;;;;;;;;;;;6.77;100.00;100543.47;4975282;28;19972;-81
2021/10/09 01:25:49;;;;;;;;;;;;;;;6.77;100.00;100545.25;4975166;28;20393;-81
2021/10/09 02:56:55;;;;;;;;;;;;;;;7.81;100.00;100511.75;4973213;28;19932;-80
2021/10/09 02:59:20;;;;;;;;;;;;;;;7.84;100.00;100515.25;4983172;28;20012;-79
2021/10/09 03:01:45;;;;;;;;;;;;;;;7.85;100.00;100514.34;4982916;28;19917;-80
2021/10/09 03:04:10;;;;;;;;;;;;;;;7.86;100.00;100511.66;4982902;28;20016;-79
2021/10/09 03:06:36;;;;;;;;;;;;;;;7.90;100.00;100509.84;4983624;28;19933;-80
2021/10/09 03:09:01;;;;;;;;;;;;;;;7.98;100.00;100515.84;4981654;28;20009;-80
2021/10/09 03:11:26;;;;;;;;;;;;;;;8.02;100.00;100511.34;4983376;28;19926;-80
2021/10/09 03:13:51;;;;;;;;;;;;;;;8.13;100.00;100510.22;4983202;28;19918;-80
2021/10/09 03:16:17;;;;;;;;;;;;;;;8.25;100.00;100513.50;4982640;28;19925;-80
2021/10/09 03:18:42;;;;;;;;;;;;;;;8.32;100.00;100513.34;4982920;28;20373;-81
2021/10/09 03:21:07;;;;;;;;;;;;;;;8.32;100.00;100512.47;4983087;28;19980;-81
2021/10/09 03:23:32;;;;;;;;;;;;;;;8.33;100.00;100511.59;4964917;28;20289;-81
2021/10/09 03:25:58;;;;;;;;;;;;;;;8.31;100.00;100516.00;4981697;28;20368;-81
2021/10/09 03:28:23;;;;;;;;;;;;;;;8.31;100.00;100505.44;4983360;28;20057;-81
2021/10/09 03:30:49;;;;;;;;;;;;;;;8.31;100.00;100510.72;4983192;28;20009;-81
2021/10/09 03:33:14;;;;;;;;;;;;;;;8.32;100.00;100512.47;4965408;28;19948;-81
2021/10/09 03:35:39;;;;;;;;;;;;;;;8.34;100.00;100518.59;4982637;28;20373;-82
2021/10/09 03:38:05;;;;;;;;;;;;;;;8.35;100.00;100520.34;4983082;28;19973;-81
2021/10/09 03:40:30;;;;;;;;;;;;;;;8.35;100.00;100518.56;4981355;28;19929;-80
2021/10/09 03:43:07;;;;;;;;;;;;;;;8.35;100.00;100515.91;4982828;28;20025;-81
2021/10/09 03:45:36;;;;;;;;;;;;;;;8.37;100.00;100519.38;4982542;28;20004;-80
2021/10/09 03:52:58;;;;;;;;;;;;;;;6.36;100.00;100515.97;4982353;28;20001;-80
2021/10/09 03:55:23;;;;;;;;;;;;;;;5.57;100.00;100524.78;4980903;28;20009;-81
2021/10/09 03:57:48;;;;;;;;;;;;;;;5.49;100.00;100521.38;4982874;28;19980;-80
2021/10/09 04:00:14;;;;;;;;;;;;;;;5.14;100.00;100530.47;4982591;28;19917;-81
2021/10/09 04:02:39;;;;;;;;;;;;;;;4.95;100.00;100526.25;4982390;28;19919;-81
2021/10/09 04:05:05;;;;;;;;;;;;;;;4.73;100.00;100532.50;4974229;28;19973;-81
2021/10/09 04:07:31;;;;;;;;;;;;;;;4.57;100.00;100527.41;4982164;28;20409;-81
2021/10/09 04:09:56;;;;;;;;;;;;;;;4.36;100.00;100524.88;4981155;28;20009;-81
2021/10/09 04:12:21;;;;;;;;;;;;;;;4.25;100.00;100524.06;4982113;28;20381;-82
2021/10/09 04:14:47;;;;;;;;;;;;;;;4.14;100.00;100523.25;4965339;28;19918;-82
2021/10/09 04:17:12;;;;;;;;;;;;;;;4.00;100.00;100525.94;4982550;28;20467;-82
2021/10/09 04:19:37;;;;;;;;;;;;;;;3.86;100.00;100522.47;4964687;28;19965;-81
2021/10/09 04:22:03;;;;;;;;;;;;;;;3.89;100.00;100532.97;4959077;28;20360;-81
2021/10/09 04:24:28;;;;;;;;;;;;;;;3.62;100.00;100530.44;4980835;28;19922;-82
2021/10/09 04:26:54;;;;;;;;;;;;;;;3.60;100.00;100533.94;4981091;28;19929;-81
2021/10/09 04:29:19;;;;;;;;;;;;;;;3.58;100.00;100527.81;4977431;28;20024;-81
2021/10/09 04:31:44;;;;;;;;;;;;;;;3.55;100.00;100535.69;4982602;28;19917;-81
2021/10/09 04:34:10;;;;;;;;;;;;;;;3.43;100.00;100542.69;4965992;28;20016;-81
2021/10/09 04:36:35;;;;;;;;;;;;;;;3.30;100.00;100540.09;4984452;28;19922;-81
2021/10/09 04:39:00;;;;;;;;;;;;;;;3.21;100.00;100544.47;4983584;28;19933;-81
2021/10/09 04:41:25;;;;;;;;;;;;;;;3.21;100.00;100541.00;4986067;28;19914;-81
2021/10/09 04:43:51;;;;;;;;;;;;;;;3.11;100.00;100536.59;4962117;28;19925;-82
2021/10/09 04:46:16;;;;;;;;;;;;;;;3.10;100.00;100535.75;4984261;28;19953;-81
2021/10/09 04:48:41;;;;;;;;;;;;;;;3.19;100.00;100542.72;4986182;28;19918;-81
2021/10/09 04:51:06;;;;;;;;;;;;;;;3.11;100.00;100539.22;4968264;28;19922;-81
2021/10/09 04:53:32;;;;;;;;;;;;;;;3.14;100.00;100537.47;4961900;28;19917;-81
2021/10/09 04:55:57;;;;;;;;;;;;;;;3.04;100.00;100541.84;4982583;28;19965;-81
2021/10/09 07:53:55;;;;;;;;;;;;;;;3.86;100.00;100632.59;5787276;23;20368;-83
2021/10/09 07:56:20;;;;;;;;;;;;;;;3.79;100.00;100632.63;5001091;28;19930;-82
2021/10/09 07:58:46;;;;;;;;;;;;;;;3.81;100.00;100636.13;4984860;28;19922;-82
2021/10/09 08:01:11;;;;;;;;;;;;;;;3.86;100.00;100635.22;4977193;28;19922;-82
2021/10/09 08:03:36;;;;;;;;;;;;;;;3.87;100.00;100636.97;4999449;28;19917;-82
2021/10/09 08:06:01;;;;;;;;;;;;;;;3.85;100.00;100631.75;4992067;28;20380;-82
2021/10/09 08:08:26;;;;;;;;;;;;;;;3.82;100.00;100637.00;5001079;28;19972;-82
2021/10/09 08:10:53;;;;;;;;;;;;;;;3.89;100.00;100636.09;5005815;28;19922;-82
2021/10/09 08:13:18;;;;;;;;;;;;;;;3.93;100.00;100634.34;4995434;28;20384;-82
2021/10/09 08:15:44;;;;;;;;;;;;;;;3.96;100.00;100636.97;5005842;28;19975;-83
2021/10/09 08:18:10;;;;;;;;;;;;;;;3.99;100.00;100631.72;5005401;28;19928;-82
2021/10/09 08:20:37;;;;;;;;;;;;;;;3.94;100.00;100636.97;5005496;28;19917;-83
2021/10/09 08:23:13;;;;;;;;;;;;;;;3.96;100.00;100634.34;5004113;28;19926;-82
2021/10/09 08:26:00;;;;;;;;;;;;;;;3.95;100.00;100628.22;5004820;28;20012;-83
2021/10/09 08:39:16;;;;;;;;;;;;;;;3.95;100.00;100635.22;5004169;28;19984;-83
2021/10/09 08:41:41;;;;;;;;;;;;;;;3.97;100.00;100631.72;5004902;28;19921;-83
2021/10/09 08:44:06;;;;;;;;;;;;;;;4.03;100.00;100625.56;5005271;28;19971;-83
2021/10/09 08:46:31;;;;;;;;;;;;;;;4.06;100.00;100625.56;5004790;28;20463;-82
2021/10/09 08:48:57;;;;;;;;;;;;;;;4.09;100.00;100635.19;5005290;28;19922;-83
2021/10/09 08:51:23;;;;;;;;;;;;;;;4.06;100.00;100628.19;5004493;28;20045;-83
2021/10/09 08:53:49;;;;;;;;;;;;;;;4.07;100.00;100632.56;5003238;28;20020;-83
2021/10/09 08:56:28;;;;;;;;;;;;;;;4.11;100.00;100623.78;5004696;28;19925;-83
2021/10/09 08:59:04;;;;;;;;;;;;;;;4.06;100.00;100622.94;5004978;28;19933;-83
2021/10/09 09:01:37;;;;;;;;;;;;;;;4.07;100.00;100629.94;5004926;28;19917;-82
2021/10/09 09:26:06;;;;;;;;;;;;;;;4.21;100.00;100618.53;5003576;28;19984;-83
2021/10/09 09:36:41;;;;;;;;;;;;;;;4.21;100.00;100603.66;5004241;28;20284;-83
2021/10/09 09:39:09;;;;;;;;;;;;;;;4.25;100.00;100600.16;5003299;28;19929;-82
2021/10/09 09:41:45;;;;;;;;;;;;;;;4.28;100.00;100604.53;4986048;28;20313;-82
2021/10/09 09:44:11;;;;;;;;;;;;;;;4.29;100.00;100593.13;5004061;28;19928;-82
2021/10/09 09:46:37;;;;;;;;;;;;;;;4.26;100.00;100609.78;5004162;28;20281;-82
2021/10/09 09:49:02;;;;;;;;;;;;;;;4.30;100.00;100597.50;5004190;28;19917;-82
2021/10/09 09:51:28;;;;;;;;;;;;;;;4.29;100.00;100598.38;5003206;28;19922;-83
2021/10/09 09:53:55;;;;;;;;;;;;;;;4.30;100.00;100598.38;5002339;28;19921;-83
2021/10/09 09:56:20;;;;;;;;;;;;;;;4.35;100.00;100593.09;5003818;28;19926;-82
2021/10/09 09:58:51;;;;;;;;;;;;;;;4.30;100.00;100598.38;5003724;28;19924;-82
2021/10/09 10:01:17;;;;;;;;;;;;;;;4.27;100.00;100592.28;5002562;28;20277;-83
2021/10/09 10:03:47;;;;;;;;;;;;;;;4.33;100.00;100597.50;5002580;28;19918;-82
2021/10/09 10:06:12;;;;;;;;;;;;;;;4.28;100.00;100602.75;5004614;28;20399;-82
2021/10/09 10:08:41;;;;;;;;;;;;;;;4.42;100.00;100592.22;5002112;28;19950;-82
2021/10/09 10:11:07;;;;;;;;;;;;;;;4.45;100.00;100596.56;5004353;28;19918;-82
2021/10/09 10:13:33;;;;;;;;;;;;;;;4.42;100.00;100591.31;5003504;28;19924;-82
2021/10/09 10:16:03;;;;;;;;;;;;;;;4.41;100.00;100587.84;5003971;28;19921;-82
2021/10/09 10:18:44;;;;;;;;;;;;;;;4.48;100.00;100589.56;5003685;28;19929;-82
2021/10/09 10:21:12;;;;;;;;;;;;;;;4.42;100.00;100593.94;5003433;28;20332;-82
2021/10/09 10:23:38;;;;;;;;;;;;;;;4.44;100.00;100597.47;5002575;28;19926;-83
2021/10/09 10:26:18;;;;;;;;;;;;;;;4.55;100.00;100587.78;5003051;28;20265;-82
2021/10/09 10:28:43;;;;;;;;;;;;;;;4.56;100.00;100589.50;4993315;28;20253;-82
2021/10/09 10:31:10;;;;;;;;;;;;;;;4.52;100.00;100587.78;4991286;28;20281;-82
2021/10/09 10:33:40;;;;;;;;;;;;;;;4.44;100.00;100590.44;5002584;28;20385;-83
2021/10/09 10:36:09;;;;;;;;;;;;;;;4.47;100.00;100587.81;4979349;28;20036;-83
2021/10/09 10:38:37;;;;;;;;;;;;;;;4.47;100.00;100593.06;5000347;28;19925;-82
2021/10/09 10:41:04;;;;;;;;;;;;;;;4.52;100.00;100596.53;5002631;28;19964;-83
2021/10/09 10:43:29;;;;;;;;;;;;;;;4.46;100.00;100583.44;5002530;28;19960;-83
2021/10/09 10:45:55;;;;;;;;;;;;;;;4.47;100.00;100587.81;5001891;28;19921;-83
2021/10/09 10:48:39;;;;;;;;;;;;;;;4.42;100.00;100588.69;4985618;28;19926;-83
2021/10/09 10:51:14;;;;;;;;;;;;;;;4.46;100.00;100587.81;5001902;28;20392;-82
2021/10/09 10:56:33;;;;;;;;;;;;;;;4.48;100.00;100586.94;5002531;28;20380;-82
2021/10/09 10:59:17;;;;;;;;;;;;;;;4.50;100.00;100585.16;5002482;28;19976;-83
2021/10/09 11:01:42;;;;;;;;;;;;;;;4.51;100.00;100589.53;5002588;28;19921;-83
2021/10/09 11:04:08;;;;;;;;;;;;;;;4.65;100.00;100585.97;5002709;28;20365;-83
2021/10/09 11:06:33;;;;;;;;;;;;;;;4.71;100.00;100588.56;5002402;28;20379;-82
2021/10/09 11:08:58;;;;;;;;;;;;;;;4.62;100.00;100578.09;5000543;28;19917;-83
2021/10/09 11:11:45;;;;;;;;;;;;;;;4.65;100.00;100583.34;5002067;28;19922;-83
2021/10/09 11:14:20;;;;;;;;;;;;;;;4.64;100.00;100577.22;4984826;28;20012;-83
2021/10/09 11:16:45;;;;;;;;;;;;;;;4.60;100.00;100572.88;5002373;28;20316;-83
2021/10/09 11:19:12;;;;;;;;;;;;;;;4.67;100.00;100573.69;5002865;28;19929;-83
2021/10/09 11:21:53;;;;;;;;;;;;;;;4.70;100.00;100586.81;5002214;28;19922;-82
2021/10/09 11:24:18;;;;;;;;;;;;;;;4.62;100.00;100578.97;5000895;28;19940;-82
2021/10/09 11:26:53;;;;;;;;;;;;;;;4.61;100.00;100576.34;5002604;28;20380;-82
2021/10/09 11:29:18;;;;;;;;;;;;;;;4.67;100.00;100579.81;5002478;28;19918;-82
2021/10/09 11:31:44;;;;;;;;;;;;;;;4.70;100.00;100582.41;5002678;28;20008;-82
2021/10/09 11:34:09;;;;;;;;;;;;;;;4.69;100.00;100577.16;5002320;28;19918;-83
2021/10/09 11:36:38;;;;;;;;;;;;;;;4.69;99.98;100575.44;4992495;28;19921;-82
2021/10/09 11:39:08;;;;;;;;;;;;;;;4.70;99.76;100573.69;4983872;28;20352;-81
2021/10/09 11:41:34;;;;;;;;;;;;;;;4.78;99.77;100573.63;5000880;28;19924;-82
2021/10/09 11:44:07;;;;;;;;;;;;;;;4.85;99.23;100572.69;4987898;28;20180;-81
2021/10/09 11:55:18;;;;;;;;;;;;;;;4.81;97.91;100566.59;5004691;28;20383;-82
2021/10/09 11:57:44;;;;;;;;;;;;;;;4.85;97.94;100562.19;4995431;28;19925;-82
2021/10/09 12:00:28;;;;;;;;;;;;;;;4.82;98.33;100563.09;4996497;28;20388;-82
2021/10/09 12:02:53;;;;;;;;;;;;;;;4.75;98.24;100558.75;4980680;28;19922;-82
2021/10/09 12:05:19;;;;;;;;;;;;;;;4.79;97.88;100564.88;4983156;28;19944;-82
2021/10/09 12:08:18;;;;;;;;;;;;;;;4.70;97.90;100557.94;5004857;28;19917;-82
2021/10/09 12:11:02;;;;;;;;;;;;;;;4.89;97.81;100559.53;5004932;28;19918;-82
2021/10/09 12:13:27;;;;;;;;;;;;;;;4.91;97.60;100565.66;4995797;28;19926;-82
2021/10/09 12:16:06;;;;;;;;;;;;;;;4.98;96.89;100552.47;4981500;28;20319;-82
2021/10/09 12:18:43;;;;;;;;;;;;;;;4.84;96.67;100563.09;5004006;28;20016;-82
2021/10/09 12:21:09;;;;;;;;;;;;;;;4.83;96.74;100553.47;4985732;28;20435;-82
2021/10/09 12:23:34;;;;;;;;;;;;;;;4.85;96.54;100557.84;4979069;28;19922;-82
2021/10/09 12:26:12;;;;;;;;;;;;;;;4.88;96.14;100560.44;4983252;28;19939;-82
2021/10/09 12:28:56;;;;;;;;;;;;;;;4.87;95.90;100553.44;5004355;28;19925;-82
2021/10/09 12:31:30;;;;;;;;;;;;;;;4.86;96.09;100553.44;4995213;28;19918;-82
2021/10/09 12:33:55;;;;;;;;;;;;;;;4.96;96.03;100547.22;5005266;28;19982;-82
2021/10/09 12:36:38;;;;;;;;;;;;;;;4.89;95.78;100554.28;5005086;28;19921;-82
2021/10/09 12:39:23;;;;;;;;;;;;;;;4.83;95.76;100556.09;5003870;28;20329;-82
2021/10/09 12:41:50;;;;;;;;;;;;;;;4.86;96.11;100556.94;5004674;28;19977;-82
2021/10/09 12:44:15;;;;;;;;;;;;;;;4.93;95.36;100541.13;4995638;28;20368;-82
2021/10/09 12:46:40;;;;;;;;;;;;;;;4.91;95.39;100539.41;4986751;28;19921;-82
2021/10/09 12:49:05;;;;;;;;;;;;;;;5.03;95.45;100538.44;4995438;28;20016;-82
2021/10/09 12:51:31;;;;;;;;;;;;;;;5.16;96.71;100544.44;4982890;28;19961;-82
2021/10/09 12:54:02;;;;;;;;;;;;;;;5.18;98.73;100542.66;4979418;28;19921;-81
2021/10/09 12:56:28;;;;;;;;;;;;;;;5.24;100.00;100541.75;4979663;28;19922;-82
2021/10/09 12:58:53;;;;;;;;;;;;;;;5.25;100.00;100541.75;4987504;28;19918;-81
2021/10/09 13:01:18;;;;;;;;;;;;;;;5.52;100.00;100537.13;4986726;28;19955;-82
2021/10/09 13:03:43;;;;;;;;;;;;;;;5.88;100.00;100534.97;4994709;28;19952;-82
2021/10/09 13:06:09;;;;;;;;;;;;;;;6.13;100.00;100530.31;4989291;28;19921;-82
2021/10/09 13:08:34;;;;;;;;;;;;;;;6.27;100.00;100532.78;4985344;28;19952;-82
2021/10/09 13:11:00;;;;;;;;;;;;;;;6.44;100.00;100531.66;4987497;28;20435;-82
2021/10/09 13:13:25;;;;;;;;;;;;;;;6.51;100.00;100528.91;5004716;28;19918;-82
2021/10/09 13:15:50;;;;;;;;;;;;;;;6.57;100.00;100527.09;4977904;28;19929;-82
2021/10/09 13:18:16;;;;;;;;;;;;;;;6.62;100.00;100526.13;4994592;28;19964;-82
2021/10/09 13:20:41;;;;;;;;;;;;;;;6.67;100.00;100519.03;5005062;28;19928;-82
2021/10/09 13:23:06;;;;;;;;;;;;;;;6.78;100.00;100517.97;4985655;28;19918;-82
2021/10/09 13:25:32;;;;;;;;;;;;;;;6.84;100.00;100518.75;5004047;28;19921;-82
2021/10/09 13:27:57;;;;;;;;;;;;;;;6.88;100.00;100519.59;5004144;28;19917;-82
2021/10/09 13:30:22;;;;;;;;;;;;;;;6.92;100.00;100510.72;4987442;28;20294;-82
2021/10/09 13:32:48;;;;;;;;;;;;;;;6.95;100.00;100517.72;4979707;28;20261;-82
2021/10/09 13:35:13;;;;;;;;;;;;;;;7.02;100.00;100507.06;4979027;28;19925;-82
2021/10/09 13:37:53;;;;;;;;;;;;;;;7.05;100.00;100517.56;4979532;28;19924;-82
2021/10/09 13:40:18;;;;;;;;;;;;;;;7.11;100.00;100510.44;5002369;28;20277;-82
2021/10/09 13:42:44;;;;;;;;;;;;;;;7.17;100.00;100512.97;5004455;28;19921;-82
2021/10/09 13:45:09;;;;;;;;;;;;;;;7.18;100.00;100506.78;4975491;28;19918;-80
2021/10/09 13:47:34;;;;;;;;;;;;;;;7.21;100.00;100502.34;5003785;28;20300;-80
2021/10/09 13:50:00;;;;;;;;;;;;;;;7.26;100.00;100497.84;5008465;28;19968;-80
2021/10/09 13:52:25;;;;;;;;;;;;;;;7.32;100.00;100498.63;4994402;28;20385;-80
2021/10/09 13:54:50;;;;;;;;;;;;;;;7.31;100.00;100489.88;5002231;28;20535;-81
2021/10/09 13:57:16;;;;;;;;;;;;;;;7.32;100.00;100499.50;5000178;28;20336;-81
2021/10/09 13:59:41;;;;;;;;;;;;;;;7.36;100.00;100495.91;5003579;28;19933;-80
2021/10/09 14:02:07;;;;;;;;;;;;;;;7.39;100.00;100498.50;4986361;28;19918;-80
2021/10/09 14:04:37;;;;;;;;;;;;;;;7.46;100.00;100489.56;4986653;28;19945;-80
2021/10/09 14:07:03;;;;;;;;;;;;;;;7.48;100.00;100489.53;5004044;28;19917;-81
2021/10/09 14:09:28;;;;;;;;;;;;;;;7.53;100.00;100489.44;5002576;28;19992;-80
2021/10/09 14:11:54;;;;;;;;;;;;;;;7.55;100.00;100495.59;5003268;28;20550;-80
2021/10/09 14:14:20;;;;;;;;;;;;;;;7.55;100.00;100491.19;4978366;28;19932;-80
2021/10/09 14:16:45;;;;;;;;;;;;;;;7.55;100.00;100482.41;4986212;28;19920;-80
2021/10/09 14:19:10;;;;;;;;;;;;;;;7.59;100.00;100484.91;5003562;28;19922;-80
2021/10/09 14:21:36;;;;;;;;;;;;;;;7.63;100.00;100485.75;5003287;28;20381;-80
2021/10/09 14:24:01;;;;;;;;;;;;;;;7.66;100.00;100487.44;4977981;28;19917;-80
2021/10/09 14:26:26;;;;;;;;;;;;;;;6.06;100.00;100489.16;4978360;28;20005;-80
2021/10/09 14:28:52;;;;;;;;;;;;;;;4.91;100.00;100492.13;4986035;28;20070;-80
2021/10/09 14:31:17;;;;;;;;;;;;;;;4.42;100.00;100500.38;4993723;28;19922;-80
2021/10/09 14:33:42;;;;;;;;;;;;;;;4.07;100.00;100496.19;4992494;28;19918;-80
2021/10/09 14:36:07;;;;;;;;;;;;;;;3.85;100.00;100494.53;4978102;28;20039;-79
2021/10/09 14:38:33;;;;;;;;;;;;;;;3.76;100.00;100496.28;4996087;28;19917;-80
2021/10/09 14:40:59;;;;;;;;;;;;;;;3.69;100.00;100491.97;5003317;28;20335;-80
2021/10/09 14:43:24;;;;;;;;;;;;;;;3.45;100.00;100496.41;5003159;28;19989;-80
2021/10/09 14:45:53;;;;;;;;;;;;;;;3.48;100.00;100503.41;5003156;28;20440;-79
2021/10/09 14:48:22;;;;;;;;;;;;;;;3.25;100.00;100495.56;4985097;28;20007;-80
2021/10/09 14:53:34;;;;;;;;;;;;;;;3.13;100.00;100495.56;5001598;28;19928;-80
2021/10/09 14:56:24;;;;;;;;;;;;;;;3.02;100.00;100496.47;4985278;28;20008;-80
2021/10/09 15:20:04;;;;;;;;;;;;;;;2.48;98.36;100472.03;5002046;28;20293;-80
2021/10/09 15:22:29;;;;;;;;;;;;;;;2.31;97.95;100482.44;4977884;28;19964;-80
2021/10/09 15:24:55;;;;;;;;;;;;;;;2.33;98.51;100484.22;4975915;28;19921;-80
2021/10/09 15:27:22;;;;;;;;;;;;;;;2.34;98.83;100480.72;5001760;28;20332;-80
2021/10/09 15:29:48;;;;;;;;;;;;;;;2.30;99.07;100483.34;5002748;28;20279;-79
2021/10/09 15:32:13;;;;;;;;;;;;;;;2.33;99.10;100491.16;5001226;28;20004;-79
2021/10/09 15:34:39;;;;;;;;;;;;;;;2.30;98.90;100488.56;5002368;28;19921;-80
2021/10/09 15:37:07;;;;;;;;;;;;;;;2.24;98.66;100492.03;5001082;28;20008;-79
2021/10/09 15:39:32;;;;;;;;;;;;;;;2.15;98.14;100492.91;4990563;28;19925;-80
2021/10/09 15:41:57;;;;;;;;;;;;;;;2.14;98.18;100490.28;5002451;28;19924;-80
2021/10/09 15:44:23;;;;;;;;;;;;;;;2.13;97.78;100491.13;4977191;28;20024;-79
2021/10/09 15:46:48;;;;;;;;;;;;;;;2.06;97.43;100497.19;5001471;28;19921;-81
2021/10/09 15:49:13;;;;;;;;;;;;;;;1.99;97.63;100497.22;5001914;28;19925;-80
2021/10/09 15:51:38;;;;;;;;;;;;;;;1.97;97.15;100498.06;5001264;28;19929;-80
2021/10/09 15:54:04;;;;;;;;;;;;;;;1.99;97.18;100499.81;5000323;28;19926;-80
2021/10/09 15:56:29;;;;;;;;;;;;;;;1.94;96.93;100498.03;5002062;28;19925;-80
2021/10/09 15:58:54;;;;;;;;;;;;;;;1.92;96.89;100503.25;5001178;28;19925;-79
2021/10/09 16:01:22;;;;;;;;;;;;;;;1.85;96.67;100500.63;5001504;28;20404;-79
2021/10/09 16:03:47;;;;;;;;;;;;;;;1.89;96.89;100502.38;4991079;28;20008;-81
2021/10/09 16:06:13;;;;;;;;;;;;;;;2.05;98.37;100504.19;5001119;28;20068;-80
2021/10/09 16:08:38;;;;;;;;;;;;;;;2.26;99.86;100498.13;4998923;28;19984;-79
2021/10/09 16:11:03;;;;;;;;;;;;;;;2.63;100.00;100503.44;5001226;28;19933;-80
2021/10/09 16:13:30;;;;;;;;;;;;;;;2.85;100.00;100508.69;4991807;28;19921;-79
2021/10/09 16:15:55;;;;;;;;;;;;;;;3.05;100.00;100506.94;5001457;28;19925;-79
2021/10/09 16:18:20;;;;;;;;;;;;;;;3.09;100.00;100513.03;5002303;28;19922;-80
2021/10/09 16:20:46;;;;;;;;;;;;;;;3.17;100.00;100516.53;4977937;28;20289;-79
2021/10/09 16:23:11;;;;;;;;;;;;;;;3.28;100.00;100513.91;4982310;28;20012;-79
2021/10/09 16:25:36;;;;;;;;;;;;;;;3.22;100.00;100516.53;5001815;28;19921;-79
2021/10/09 16:28:01;;;;;;;;;;;;;;;3.33;100.00;100514.75;5001186;28;20382;-80
2021/10/09 16:30:27;;;;;;;;;;;;;;;3.27;100.00;100512.13;5002585;28;20405;-79
2021/10/09 16:32:52;;;;;;;;;;;;;;;3.34;100.00;100508.66;5004617;28;19980;-80
2021/10/09 16:35:17;;;;;;;;;;;;;;;3.30;100.00;100511.28;4998265;28;20340;-80
2021/10/09 16:37:42;;;;;;;;;;;;;;;3.44;100.00;100512.13;5002049;28;19953;-79
2021/10/09 16:40:08;;;;;;;;;;;;;;;3.37;100.00;100505.16;4993499;28;19921;-80
2021/10/09 16:42:33;;;;;;;;;;;;;;;3.49;100.00;100512.13;5004091;28;20015;-80
2021/10/09 16:44:58;;;;;;;;;;;;;;;3.44;100.00;100510.38;4988082;28;19968;-80
2021/10/09 16:47:24;;;;;;;;;;;;;;;3.52;100.00;100525.22;5005028;28;20415;-79
2021/10/09 16:49:49;;;;;;;;;;;;;;;3.47;100.00;100517.34;5004150;28;19925;-80
2021/10/09 16:52:14;;;;;;;;;;;;;;;3.48;100.00;100523.47;5004897;28;19988;-79
2021/10/09 16:54:40;;;;;;;;;;;;;;;3.53;100.00;100526.97;5003477;28;19928;-79
2021/10/09 16:57:05;;;;;;;;;;;;;;;3.50;100.00;100525.22;4987541;28;19929;-79
2021/10/09 16:59:30;;;;;;;;;;;;;;;3.62;100.00;100529.53;5004445;28;19925;-80
2021/10/09 17:01:55;;;;;;;;;;;;;;;3.58;100.00;100536.53;4993337;28;19922;-79
2021/10/09 17:04:21;;;;;;;;;;;;;;;3.66;100.00;100535.66;5003180;28;19925;-79
2021/10/09 17:06:48;;;;;;;;;;;;;;;3.66;100.00;100536.53;4985260;28;19926;-79
2021/10/09 17:09:13;;;;;;;;;;;;;;;3.60;100.00;100539.16;5001599;28;19922;-79
2021/10/09 17:11:39;;;;;;;;;;;;;;;3.66;100.00;100544.41;4985164;28;19968;-79
2021/10/09 17:14:04;;;;;;;;;;;;;;;3.62;100.00;100548.78;5004349;28;19958;-80
2021/10/09 17:16:30;;;;;;;;;;;;;;;3.66;100.00;100546.16;4992180;28;20007;-80
2021/10/09 17:19:02;;;;;;;;;;;;;;;3.74;100.00;100550.50;4987347;28;19922;-79
2021/10/09 17:21:27;;;;;;;;;;;;;;;3.73;100.00;100542.63;5005050;28;20063;-80
2021/10/09 17:23:53;;;;;;;;;;;;;;;3.75;100.00;100552.25;4991904;28;20024;-79
2021/10/09 17:26:18;;;;;;;;;;;;;;;3.72;100.00;100553.97;4981807;28;19926;-79
2021/10/09 17:28:43;;;;;;;;;;;;;;;3.76;100.00;100545.25;4986382;28;20365;-78
2021/10/09 17:31:09;;;;;;;;;;;;;;;3.84;100.00;100556.56;5001308;28;20016;-80
2021/10/09 17:33:34;;;;;;;;;;;;;;;3.86;100.00;100556.56;4992477;28;19918;-79
2021/10/09 17:36:00;;;;;;;;;;;;;;;3.89;100.00;100553.94;5002102;28;19922;-80
2021/10/09 17:38:25;;;;;;;;;;;;;;;3.75;100.00;100557.50;4991852;28;19928;-78
2021/10/09 17:40:51;;;;;;;;;;;;;;;3.84;100.00;100561.81;4990732;28;19929;-77
2021/10/09 17:43:16;;;;;;;;;;;;;;;3.81;100.00;100560.09;4992445;28;19917;-79
2021/10/09 17:45:41;;;;;;;;;;;;;;;3.88;100.00;100565.28;4998747;28;20016;-78
2021/10/09 17:48:07;;;;;;;;;;;;;;;3.89;100.00;100564.44;5002179;28;19925;-79
2021/10/09 17:50:32;;;;;;;;;;;;;;;3.84;100.00;100567.06;4984883;28;19925;-79
2021/10/09 17:52:58;;;;;;;;;;;;;;;3.87;100.00;100574.91;5000246;28;19979;-79
2021/10/09 17:55:23;;;;;;;;;;;;;;;3.90;100.00;100574.06;4985154;28;20448;-79
2021/10/09 17:57:49;;;;;;;;;;;;;;;3.84;100.00;100572.31;5003553;28;19926;-80
2021/10/09 18:00:15;;;;;;;;;;;;;;;3.90;100.00;100576.66;4993906;28;19933;-79
2021/10/09 18:02:40;;;;;;;;;;;;;;;3.94;100.00;100573.16;4974293;28;19948;-79
2021/10/09 18:05:06;;;;;;;;;;;;;;;3.92;100.00;100575.78;4992767;28;19977;-79
2021/10/09 18:07:32;;;;;;;;;;;;;;;3.95;100.00;100572.28;4991621;28;19970;-79
2021/10/09 18:09:58;;;;;;;;;;;;;;;3.95;100.00;100578.38;4991742;28;19922;-79
2021/10/09 18:12:23;;;;;;;;;;;;;;;3.96;100.00;100576.66;4992773;28;19926;-80
2021/10/09 18:14:48;;;;;;;;;;;;;;;3.97;100.00;100578.38;4992055;28;19929;-79
2021/10/09 18:17:13;;;;;;;;;;;;;;;5.89;100.00;100572.63;4990045;28;19925;-79
2021/10/09 18:19:39;;;;;;;;;;;;;;;4.86;100.00;100582.31;4977200;28;19936;-80
2021/10/09 18:22:04;;;;;;;;;;;;;;;4.37;100.00;100583.47;4980127;28;19925;-79